Time;durP1;ratioP1;P1;durP2;ratioP2;P2;SDS_P1;SDS_P2;PMS_P1;PMS_P2;Temp;Humidity;BMP_temperature;BMP_pressure;BME280_temperature;BME280_humidity;BME280_pressure;Samples;Min_cycle;Max_cycle;Signal;HPM_P1;HPM_P2
2023/04/11 00:01:28;;;;;;;2.20;1.40;;;11.00;99.90;;;;;;5010439;28;20609;-76
2023/04/11 00:03:55;;;;;;;1.87;1.40;;;11.00;99.90;;;;;;5009874;28;20198;-78
2023/04/11 00:06:22;;;;;;;2.23;2.03;;;11.00;99.90;;;;;;5011091;28;20911;-78
2023/04/11 00:08:47;;;;;;;4.07;1.30;;;11.00;99.90;;;;;;5010973;28;20421;-78
2023/04/11 00:11:13;;;;;;;3.60;1.40;;;10.90;99.90;;;;;;5009608;28;20446;-78
2023/04/11 00:13:41;;;;;;;3.30;1.10;;;10.90;99.90;;;;;;5009925;28;20193;-77
2023/04/11 00:16:08;;;;;;;1.57;1.20;;;11.00;99.90;;;;;;5010562;28;20457;-78
2023/04/11 00:18:36;;;;;;;3.67;1.50;;;11.00;99.90;;;;;;5010796;28;20429;-78
2023/04/11 00:21:09;;;;;;;2.47;1.23;;;10.90;99.90;;;;;;5010564;28;20798;-77
2023/04/11 00:23:34;;;;;;;1.60;1.03;;;10.90;99.90;;;;;;5009286;28;20950;-77
2023/04/11 00:26:01;;;;;;;2.87;1.03;;;10.90;99.90;;;;;;5011272;28;20453;-78
2023/04/11 00:28:27;;;;;;;5.87;1.37;;;11.00;99.90;;;;;;5009562;28;20192;-77
2023/04/11 00:30:52;;;;;;;4.20;1.37;;;11.00;99.90;;;;;;5010902;28;20446;-78
2023/04/11 00:33:18;;;;;;;2.77;1.53;;;10.90;99.90;;;;;;5010756;28;20224;-77
2023/04/11 00:35:44;;;;;;;3.97;1.30;;;11.00;99.90;;;;;;5009106;28;20207;-78
2023/04/11 00:38:09;;;;;;;2.40;1.00;;;11.00;99.90;;;;;;5009878;28;20202;-78
2023/04/11 00:40:35;;;;;;;4.00;1.10;;;11.00;99.90;;;;;;5011137;28;20199;-76
2023/04/11 00:43:01;;;;;;;2.23;1.00;;;11.00;99.90;;;;;;5010077;28;20992;-79
2023/04/11 00:45:26;;;;;;;5.97;1.60;;;11.00;99.90;;;;;;5012400;28;20262;-76
2023/04/11 00:47:53;;;;;;;3.53;1.37;;;11.00;99.90;;;;;;5011597;28;20187;-78
2023/04/11 00:50:20;;;;;;;4.33;1.37;;;10.90;99.90;;;;;;5020292;28;20201;-79
2023/04/11 00:52:48;;;;;;;5.47;1.30;;;11.00;99.90;;;;;;5014699;28;20425;-77
2023/04/11 00:55:14;;;;;;;10.97;1.80;;;11.00;99.90;;;;;;5011591;28;21041;-76
2023/04/11 00:57:41;;;;;;;4.00;1.50;;;11.00;99.90;;;;;;4980737;28;20916;-77
2023/04/11 01:00:10;;;;;;;4.40;1.60;;;11.00;99.90;;;;;;4992092;28;20439;-77
2023/04/11 01:02:41;;;;;;;4.23;1.40;;;11.00;99.90;;;;;;4992181;28;20469;-77
2023/04/11 01:05:09;;;;;;;3.73;1.93;;;11.00;99.90;;;;;;4991929;28;20466;-76
2023/04/11 01:07:36;;;;;;;5.17;2.77;;;11.00;99.90;;;;;;5001242;28;20490;-78
2023/04/11 01:10:04;;;;;;;6.20;1.57;;;11.00;99.90;;;;;;5003060;28;20446;-78
2023/04/11 01:12:31;;;;;;;3.60;1.50;;;10.90;99.90;;;;;;4991298;28;20426;-77
2023/04/11 01:14:57;;;;;;;3.50;2.13;;;10.90;99.90;;;;;;5004778;28;20461;-78
2023/04/11 01:17:24;;;;;;;4.00;1.60;;;10.90;99.90;;;;;;4988408;28;20494;-78
2023/04/11 01:19:51;;;;;;;4.40;1.57;;;10.90;99.90;;;;;;4989711;28;20585;-76
2023/04/11 01:22:21;;;;;;;6.53;1.60;;;10.90;99.90;;;;;;5005148;28;21110;-78
2023/04/11 01:24:47;;;;;;;5.80;2.23;;;10.90;99.90;;;;;;4988484;28;20419;-77
2023/04/11 01:27:13;;;;;;;5.83;2.13;;;10.90;99.90;;;;;;4988110;28;20951;-78
2023/04/11 01:29:39;;;;;;;7.17;3.00;;;10.90;99.90;;;;;;4990732;28;20492;-78
2023/04/11 01:32:05;;;;;;;6.43;2.00;;;10.90;99.90;;;;;;4993745;28;20180;-77
2023/04/11 01:34:32;;;;;;;2.80;1.83;;;10.90;99.90;;;;;;5008758;28;20616;-77
2023/04/11 01:36:58;;;;;;;5.90;1.90;;;10.80;99.90;;;;;;4992137;28;20415;-78
2023/04/11 01:39:24;;;;;;;6.20;1.97;;;10.90;99.90;;;;;;5008508;28;20995;-77
2023/04/11 01:41:51;;;;;;;6.90;2.20;;;10.90;99.90;;;;;;4993615;28;20451;-76
2023/04/11 01:44:19;;;;;;;3.70;2.10;;;10.90;99.90;;;;;;4993330;28;20172;-77
2023/04/11 01:46:45;;;;;;;4.30;1.97;;;10.90;99.90;;;;;;4993116;28;20540;-77
2023/04/11 01:49:16;;;;;;;11.20;2.33;;;10.90;99.90;;;;;;4992613;28;20944;-77
2023/04/11 01:51:41;;;;;;;7.57;1.93;;;10.90;99.90;;;;;;4993321;28;20426;-77
2023/04/11 01:54:07;;;;;;;8.80;2.53;;;10.90;99.90;;;;;;5008258;28;20404;-77
2023/04/11 01:56:33;;;;;;;10.30;2.90;;;10.90;99.90;;;;;;4993289;28;20176;-77
2023/04/11 01:58:58;;;;;;;6.30;3.30;;;10.80;99.90;;;;;;4993252;28;20255;-78
2023/04/11 02:01:25;;;;;;;9.50;2.77;;;10.80;99.90;;;;;;4992963;28;20196;-77
2023/04/11 02:03:51;;;;;;;15.93;3.43;;;10.80;99.90;;;;;;4993622;28;20176;-79
2023/04/11 02:06:16;;;;;;;8.67;3.27;;;10.90;99.90;;;;;;4993757;28;20951;-78
2023/04/11 02:08:42;;;;;;;10.73;3.00;;;10.80;99.90;;;;;;4993409;28;20186;-78
2023/04/11 02:11:08;;;;;;;9.27;2.90;;;10.80;99.90;;;;;;4993120;28;20203;-78
2023/04/11 02:13:35;;;;;;;7.07;3.40;;;10.80;99.90;;;;;;4994412;28;20776;-79
2023/04/11 02:16:08;;;;;;;7.43;3.20;;;10.90;99.90;;;;;;4994654;28;20238;-77
2023/04/11 02:18:35;;;;;;;7.57;3.70;;;10.80;99.90;;;;;;4994299;28;20412;-79
2023/04/11 02:21:01;;;;;;;10.53;3.23;;;10.80;99.90;;;;;;4994245;28;20431;-77
2023/04/11 02:23:27;;;;;;;9.03;3.43;;;10.80;99.90;;;;;;4994177;28;20462;-77
2023/04/11 02:25:52;;;;;;;11.40;3.50;;;10.80;99.90;;;;;;4996307;28;20486;-79
2023/04/11 02:28:18;;;;;;;8.93;4.33;;;10.80;99.90;;;;;;4994574;28;20259;-77
2023/04/11 02:30:44;;;;;;;8.40;4.10;;;10.80;99.90;;;;;;4993471;28;20195;-78
2023/04/11 02:33:09;;;;;;;9.90;3.70;;;10.80;99.90;;;;;;5010013;28;20176;-78
2023/04/11 02:35:35;;;;;;;9.77;3.90;;;10.80;99.90;;;;;;4993279;28;20211;-78
2023/04/11 02:38:01;;;;;;;13.47;3.53;;;10.70;99.90;;;;;;5009006;28;20204;-79
2023/04/11 02:40:26;;;;;;;11.70;3.90;;;10.70;99.90;;;;;;4992271;28;20262;-78
2023/04/11 02:42:52;;;;;;;9.63;3.57;;;10.70;99.90;;;;;;5009097;28;20774;-79
2023/04/11 02:45:18;;;;;;;16.13;4.03;;;10.70;99.90;;;;;;4994077;28;20174;-79
2023/04/11 02:47:43;;;;;;;13.70;4.00;;;10.70;99.90;;;;;;5008830;28;20207;-77
2023/04/11 02:50:09;;;;;;;10.00;3.57;;;10.70;99.90;;;;;;5008819;28;20242;-79
2023/04/11 02:52:36;;;;;;;10.97;3.87;;;10.70;99.90;;;;;;4992832;28;20234;-77
2023/04/11 02:55:02;;;;;;;8.47;3.83;;;10.70;99.90;;;;;;4993435;28;20481;-77
2023/04/11 02:57:28;;;;;;;7.53;3.70;;;10.60;99.90;;;;;;5004682;28;20821;-78
2023/04/11 02:59:54;;;;;;;10.77;4.30;;;10.60;99.90;;;;;;5011530;28;20430;-79
2023/04/11 03:02:22;;;;;;;15.30;4.20;;;10.60;99.90;;;;;;5012323;28;20241;-79
2023/04/11 03:04:47;;;;;;;11.40;3.80;;;10.60;99.90;;;;;;5013088;28;21002;-79
2023/04/11 03:07:13;;;;;;;8.67;4.00;;;10.60;99.90;;;;;;5028578;28;20458;-80
2023/04/11 03:09:39;;;;;;;13.93;4.00;;;10.60;99.90;;;;;;5013366;28;20202;-78
2023/04/11 03:12:04;;;;;;;12.07;4.10;;;10.60;99.90;;;;;;5012451;28;20179;-77
2023/04/11 03:14:30;;;;;;;14.03;3.97;;;10.60;99.90;;;;;;5012542;28;20313;-79
2023/04/11 03:16:56;;;;;;;12.73;4.00;;;10.60;99.90;;;;;;5028157;28;20266;-77
2023/04/11 03:19:21;;;;;;;11.30;3.97;;;10.60;99.90;;;;;;5027803;28;20172;-79
2023/04/11 03:21:47;;;;;;;12.10;3.70;;;10.60;99.90;;;;;;5011747;28;20174;-79
2023/04/11 03:24:13;;;;;;;15.03;3.30;;;10.60;99.90;;;;;;5013019;28;20172;-78
2023/04/11 03:26:38;;;;;;;13.30;3.70;;;10.60;99.90;;;;;;5012559;28;20194;-77
2023/04/11 03:29:04;;;;;;;12.50;4.30;;;10.50;99.90;;;;;;5012515;28;20183;-78
2023/04/11 03:31:29;;;;;;;8.77;3.57;;;10.60;99.90;;;;;;5012665;28;20179;-78
2023/04/11 03:33:55;;;;;;;8.80;3.77;;;10.60;99.90;;;;;;5027476;28;20179;-77
2023/04/11 03:36:21;;;;;;;10.93;3.30;;;10.50;99.90;;;;;;5012990;28;20214;-79
2023/04/11 03:38:47;;;;;;;11.83;4.97;;;10.40;99.90;;;;;;5027312;28;20219;-77
2023/04/11 03:41:13;;;;;;;9.60;3.23;;;10.50;99.90;;;;;;5012627;28;21411;-78
2023/04/11 03:43:38;;;;;;;11.63;3.73;;;10.40;99.90;;;;;;5010349;28;20229;-78
2023/04/11 03:46:04;;;;;;;18.50;4.80;;;10.50;99.90;;;;;;5007885;28;20187;-79
2023/04/11 03:48:30;;;;;;;9.17;4.43;;;10.40;99.90;;;;;;4996781;28;20186;-77
2023/04/11 03:50:56;;;;;;;12.80;4.03;;;10.40;99.90;;;;;;4996341;28;20215;-77
2023/04/11 03:53:21;;;;;;;9.33;4.13;;;10.40;99.90;;;;;;4997737;28;20215;-78
2023/04/11 03:55:47;;;;;;;13.03;3.77;;;10.40;99.90;;;;;;4997997;28;20254;-77
2023/04/11 03:58:14;;;;;;;14.33;4.50;;;10.40;99.90;;;;;;5015258;28;20378;-77
2023/04/11 04:00:40;;;;;;;14.40;4.40;;;10.30;99.90;;;;;;5017071;28;20441;-77
2023/04/11 04:03:05;;;;;;;13.83;3.70;;;10.30;99.90;;;;;;5016972;28;20433;-77
2023/04/11 04:05:31;;;;;;;18.20;4.17;;;10.30;99.90;;;;;;5017267;28;20183;-77
2023/04/11 04:07:57;;;;;;;14.93;4.30;;;10.40;99.90;;;;;;5017554;28;20183;-77
2023/04/11 04:10:23;;;;;;;21.40;5.30;;;10.30;99.90;;;;;;5033061;28;20207;-78
2023/04/11 04:12:48;;;;;;;12.13;3.80;;;10.30;99.90;;;;;;5017831;28;20262;-77
2023/04/11 04:15:14;;;;;;;9.77;3.80;;;10.30;99.90;;;;;;5017085;28;20493;-77
2023/04/11 04:17:43;;;;;;;16.63;4.47;;;10.40;99.90;;;;;;5017077;28;20534;-77
2023/04/11 04:20:09;;;;;;;18.47;4.57;;;10.40;99.90;;;;;;5016730;28;20205;-78
2023/04/11 04:22:36;;;;;;;14.90;4.97;;;10.30;99.90;;;;;;5017619;28;20414;-77
2023/04/11 04:25:02;;;;;;;16.17;4.57;;;10.40;99.90;;;;;;4999829;28;20414;-77
2023/04/11 04:27:28;;;;;;;14.33;3.93;;;10.40;99.90;;;;;;4999905;28;20480;-77
2023/04/11 04:29:55;;;;;;;10.33;3.97;;;10.20;99.90;;;;;;5017507;28;20458;-77
2023/04/11 04:32:22;;;;;;;10.97;4.10;;;10.20;99.90;;;;;;5033135;28;20175;-77
2023/04/11 04:34:53;;;;;;;15.13;4.80;;;10.20;99.90;;;;;;5016736;28;20454;-77
2023/04/11 04:37:20;;;;;;;13.73;4.77;;;10.30;99.90;;;;;;5017468;28;20441;-77
2023/04/11 04:39:53;;;;;;;12.30;4.30;;;10.20;99.90;;;;;;5016547;28;20445;-77
2023/04/11 04:42:20;;;;;;;10.73;3.83;;;10.30;99.90;;;;;;5032701;28;20775;-77
2023/04/11 04:44:46;;;;;;;14.83;4.77;;;10.30;99.90;;;;;;5005558;28;20427;-77
2023/04/11 04:47:12;;;;;;;10.50;4.67;;;10.20;99.90;;;;;;4995140;28;20442;-77
2023/04/11 04:49:38;;;;;;;15.70;4.97;;;10.20;99.90;;;;;;5012949;28;20470;-77
2023/04/11 04:52:04;;;;;;;10.03;5.17;;;10.20;99.90;;;;;;5014938;28;20667;-73
2023/04/11 04:54:31;;;;;;;13.53;5.90;;;10.20;99.90;;;;;;5006800;28;20183;-73
2023/04/11 04:56:56;;;;;;;8.63;4.57;;;10.20;99.90;;;;;;5015975;28;20422;-73
2023/04/11 04:59:22;;;;;;;11.80;5.33;;;10.20;99.90;;;;;;5008845;28;20774;-73
2023/04/11 05:01:52;;;;;;;17.43;5.10;;;10.20;99.90;;;;;;5008492;28;20557;-73
2023/04/11 05:04:18;;;;;;;10.57;5.23;;;10.20;99.90;;;;;;5006111;28;20193;-77
2023/04/11 05:06:44;;;;;;;10.20;5.00;;;10.10;99.90;;;;;;5013964;28;20418;-78
2023/04/11 05:09:10;;;;;;;13.30;5.30;;;10.20;99.90;;;;;;5014508;28;20414;-78
2023/04/11 05:11:35;;;;;;;14.63;5.90;;;10.20;99.90;;;;;;5030569;28;20596;-77
2023/04/11 05:14:01;;;;;;;9.97;4.93;;;10.20;99.90;;;;;;5015369;28;20179;-77
2023/04/11 05:16:26;;;;;;;13.90;4.97;;;10.10;99.90;;;;;;5015878;28;20280;-77
2023/04/11 05:18:52;;;;;;;15.17;5.60;;;10.20;99.90;;;;;;5015774;28;20167;-78
2023/04/11 05:21:18;;;;;;;7.30;4.90;;;10.00;99.90;;;;;;5030866;28;20286;-78
2023/04/11 05:23:43;;;;;;;9.40;5.23;;;10.00;99.90;;;;;;5015003;28;20214;-78
2023/04/11 05:26:10;;;;;;;13.60;5.50;;;10.00;99.90;;;;;;5014876;28;20189;-77
2023/04/11 05:28:36;;;;;;;12.67;5.47;;;10.00;99.90;;;;;;5015790;28;20274;-77
2023/04/11 05:31:01;;;;;;;13.80;5.70;;;10.00;99.90;;;;;;5015781;28;20473;-77
2023/04/11 05:33:27;;;;;;;9.47;6.10;;;10.00;99.90;;;;;;5014477;28;20573;-76
2023/04/11 05:35:53;;;;;;;11.73;4.60;;;10.00;99.90;;;;;;5016901;28;20218;-76
2023/04/11 05:38:19;;;;;;;14.43;5.27;;;10.00;99.90;;;;;;5015363;28;20434;-78
2023/04/11 05:40:46;;;;;;;13.00;4.97;;;10.00;99.90;;;;;;5007594;28;20521;-78
2023/04/11 05:43:13;;;;;;;11.53;4.63;;;10.10;99.90;;;;;;5014290;28;20462;-78
2023/04/11 05:45:40;;;;;;;9.07;3.90;;;10.10;99.90;;;;;;5000806;28;20222;-77
2023/04/11 05:48:07;;;;;;;9.07;4.10;;;10.00;99.90;;;;;;5004768;28;20924;-77
2023/04/11 05:50:35;;;;;;;12.13;4.47;;;10.00;99.90;;;;;;5009376;28;20465;-76
2023/04/11 05:53:02;;;;;;;9.00;3.73;;;10.00;99.90;;;;;;5003140;28;20508;-78
2023/04/11 05:55:28;;;;;;;11.17;4.13;;;10.20;99.90;;;;;;4994480;28;20471;-78
2023/04/11 05:57:54;;;;;;;9.63;4.10;;;10.20;99.90;;;;;;5009999;28;20961;-78
2023/04/11 06:00:20;;;;;;;7.67;3.87;;;10.30;99.90;;;;;;5017781;28;20438;-78
2023/04/11 06:02:47;;;;;;;10.37;4.43;;;10.40;99.90;;;;;;5020009;28;20179;-78
2023/04/11 06:05:15;;;;;;;9.63;3.70;;;10.50;99.90;;;;;;5011802;28;20435;-76
2023/04/11 06:07:41;;;;;;;6.97;4.00;;;10.70;99.90;;;;;;5013046;28;20418;-78
2023/04/11 06:10:10;;;;;;;9.03;4.07;;;10.80;99.90;;;;;;5008235;28;20469;-78
2023/04/11 06:12:35;;;;;;;7.77;3.90;;;10.80;99.90;;;;;;4999585;28;20513;-77
2023/04/11 06:15:01;;;;;;;11.20;5.10;;;10.80;99.90;;;;;;5018725;28;20503;-78
2023/04/11 06:17:27;;;;;;;7.93;3.50;;;10.80;99.90;;;;;;5020806;28;20179;-78
2023/04/11 06:19:53;;;;;;;8.73;4.20;;;10.80;99.90;;;;;;5020545;28;20434;-77
2023/04/11 06:22:18;;;;;;;7.20;4.77;;;10.70;99.90;;;;;;5036100;28;20233;-78
2023/04/11 06:24:44;;;;;;;11.43;4.53;;;10.50;99.90;;;;;;5019431;28;20198;-78
2023/04/11 06:27:10;;;;;;;7.77;4.27;;;10.50;99.90;;;;;;5018073;28;20187;-77
2023/04/11 06:29:40;;;;;;;13.77;6.17;;;10.50;99.90;;;;;;5010835;28;20373;-77
2023/04/11 06:32:06;;;;;;;9.00;4.23;;;10.50;99.90;;;;;;5016711;28;20425;-77
2023/04/11 06:34:33;;;;;;;11.17;4.70;;;10.60;99.90;;;;;;5010504;28;20425;-77
2023/04/11 06:36:58;;;;;;;9.73;3.83;;;10.70;99.90;;;;;;5015930;28;20418;-78
2023/04/11 06:39:24;;;;;;;7.50;3.80;;;10.80;99.90;;;;;;5018247;28;20491;-77
2023/04/11 06:41:50;;;;;;;8.80;4.27;;;10.80;99.90;;;;;;5019682;28;20901;-77
2023/04/11 06:44:16;;;;;;;8.53;4.53;;;10.80;99.90;;;;;;5017435;28;20500;-77
2023/04/11 06:46:42;;;;;;;9.77;4.10;;;10.90;99.90;;;;;;5011587;28;20656;-77
2023/04/11 06:49:09;;;;;;;8.33;4.43;;;11.00;99.90;;;;;;5006913;28;20180;-77
2023/04/11 06:51:35;;;;;;;8.70;5.30;;;11.10;99.90;;;;;;5009492;28;20183;-76
2023/04/11 06:54:02;;;;;;;9.83;3.73;;;11.10;99.90;;;;;;5024906;28;20510;-77
2023/04/11 06:56:28;;;;;;;7.77;4.20;;;11.10;99.90;;;;;;5026755;28;20459;-77
2023/04/11 06:58:54;;;;;;;8.77;3.63;;;11.20;99.90;;;;;;5020027;28;21134;-77
2023/04/11 07:01:24;;;;;;;8.90;3.20;;;11.10;99.90;;;;;;5019756;28;20426;-77
2023/04/11 07:03:51;;;;;;;7.30;2.93;;;11.10;99.90;;;;;;5018675;28;20477;-78
2023/04/11 07:06:18;;;;;;;6.00;3.30;;;11.10;99.90;;;;;;5019460;28;20420;-77
2023/04/11 07:08:44;;;;;;;13.43;4.07;;;11.10;99.90;;;;;;5034225;28;20418;-77
2023/04/11 07:11:10;;;;;;;12.73;3.27;;;11.10;99.90;;;;;;5018747;28;20445;-77
2023/04/11 07:13:36;;;;;;;9.53;4.00;;;11.10;99.90;;;;;;5017909;28;20422;-78
2023/04/11 07:16:02;;;;;;;7.70;3.93;;;11.10;99.90;;;;;;5019610;28;20553;-77
2023/04/11 07:18:29;;;;;;;7.37;3.87;;;11.10;99.90;;;;;;5034879;28;20438;-77
2023/04/11 07:20:55;;;;;;;7.63;3.43;;;11.10;99.90;;;;;;5033804;28;20543;-77
2023/04/11 07:23:20;;;;;;;6.40;2.90;;;11.10;99.90;;;;;;5018287;28;20635;-77
2023/04/11 07:25:46;;;;;;;7.00;2.80;;;11.10;99.90;;;;;;5034445;28;20207;-77
2023/04/11 07:28:12;;;;;;;8.20;3.90;;;11.10;99.90;;;;;;5018622;28;20179;-77
2023/04/11 07:30:37;;;;;;;9.37;3.60;;;11.10;99.90;;;;;;5017733;28;20198;-77
2023/04/11 07:33:03;;;;;;;7.97;3.07;;;11.00;99.90;;;;;;5018936;28;20941;-77
2023/04/11 07:35:30;;;;;;;10.33;3.10;;;11.10;99.90;;;;;;5018650;28;20203;-77
2023/04/11 07:37:57;;;;;;;6.23;2.90;;;11.10;99.90;;;;;;5017909;28;20179;-77
2023/04/11 07:40:23;;;;;;;5.17;2.50;;;11.10;99.90;;;;;;5016067;28;20445;-77
2023/04/11 07:42:48;;;;;;;9.70;3.40;;;11.10;99.90;;;;;;5016896;28;20398;-77
2023/04/11 07:45:14;;;;;;;7.83;2.97;;;11.10;99.90;;;;;;5004026;28;21081;-77
2023/04/11 07:47:40;;;;;;;9.83;2.97;;;11.10;99.90;;;;;;4998303;28;20180;-77
2023/04/11 07:50:06;;;;;;;7.73;3.20;;;11.10;99.90;;;;;;4997880;28;20536;-77
2023/04/11 07:52:32;;;;;;;5.23;2.70;;;11.10;99.90;;;;;;4998034;28;20188;-78
2023/04/11 07:54:57;;;;;;;8.77;3.10;;;11.20;99.90;;;;;;4995943;28;20474;-78
2023/04/11 07:57:23;;;;;;;7.70;2.50;;;11.10;99.90;;;;;;5007725;28;20782;-77
2023/04/11 07:59:49;;;;;;;8.20;2.83;;;11.20;99.90;;;;;;5016454;28;20227;-77
2023/04/11 08:02:15;;;;;;;10.37;2.93;;;11.20;99.90;;;;;;5016943;28;20183;-77
2023/04/11 08:04:40;;;;;;;9.50;3.30;;;11.20;99.90;;;;;;5014633;28;20270;-78
2023/04/11 08:07:06;;;;;;;7.47;3.10;;;11.30;99.90;;;;;;5009636;28;20175;-78
2023/04/11 08:09:33;;;;;;;8.90;3.17;;;11.30;99.90;;;;;;5009945;28;20260;-77
2023/04/11 08:12:00;;;;;;;9.37;3.43;;;11.30;99.90;;;;;;5011462;28;20179;-79
2023/04/11 08:14:26;;;;;;;8.03;3.10;;;11.40;99.90;;;;;;4993416;28;20431;-78
2023/04/11 08:16:52;;;;;;;9.17;3.57;;;11.40;99.90;;;;;;5009510;28;20937;-77
2023/04/11 08:19:18;;;;;;;6.90;2.93;;;11.40;99.90;;;;;;5009998;28;20410;-78
2023/04/11 08:21:44;;;;;;;10.03;3.17;;;11.50;99.90;;;;;;4993448;28;20425;-78
2023/04/11 08:24:10;;;;;;;9.13;3.60;;;11.50;99.90;;;;;;5009527;28;20879;-78
2023/04/11 08:26:35;;;;;;;8.93;3.80;;;11.50;99.90;;;;;;4994052;28;20202;-75
2023/04/11 08:29:02;;;;;;;9.10;3.83;;;11.50;99.90;;;;;;5010972;28;20413;-78
2023/04/11 08:31:31;;;;;;;8.27;3.43;;;11.50;99.90;;;;;;5010773;28;20262;-78
2023/04/11 08:33:56;;;;;;;7.70;3.77;;;11.60;99.90;;;;;;5010682;28;20437;-77
2023/04/11 08:36:22;;;;;;;7.77;3.70;;;11.60;99.90;;;;;;5010702;28;20492;-77
2023/04/11 08:38:48;;;;;;;9.23;3.93;;;11.60;99.90;;;;;;5010229;28;20206;-77
2023/04/11 08:41:14;;;;;;;6.23;3.27;;;11.70;99.90;;;;;;5010519;28;20195;-77
2023/04/11 08:43:39;;;;;;;7.53;3.80;;;11.80;99.90;;;;;;5009353;28;20187;-77
2023/04/11 08:46:10;;;;;;;4.67;3.03;;;11.90;99.90;;;;;;5009316;28;20889;-77
2023/04/11 08:48:37;;;;;;;18.23;4.27;;;11.90;99.90;;;;;;5010404;28;20666;-78
2023/04/11 08:51:02;;;;;;;13.00;3.70;;;11.90;99.90;;;;;;5010379;28;20975;-78
2023/04/11 08:53:29;;;;;;;4.27;3.43;;;12.00;99.90;;;;;;5010339;28;20419;-78
2023/04/11 08:55:55;;;;;;;10.63;3.70;;;12.00;99.90;;;;;;5010631;28;20215;-78
2023/04/11 08:58:20;;;;;;;5.03;3.60;;;11.90;99.90;;;;;;5009864;28;20418;-78
2023/04/11 09:00:46;;;;;;;6.53;3.17;;;12.00;99.90;;;;;;5008139;28;20199;-77
2023/04/11 09:03:15;;;;;;;7.40;2.87;;;12.00;99.90;;;;;;5010264;28;20900;-77
2023/04/11 09:05:45;;;;;;;6.27;3.37;;;12.00;99.90;;;;;;5010677;28;20274;-77
2023/04/11 09:08:13;;;;;;;6.10;3.57;;;12.00;99.90;;;;;;5010390;28;20426;-77
2023/04/11 09:10:41;;;;;;;6.00;2.80;;;11.90;99.90;;;;;;5009158;28;20438;-77
2023/04/11 09:13:26;;;;;;;7.07;3.00;;;12.00;99.90;;;;;;5010115;28;20522;-77
2023/04/11 09:16:12;;;;;;;6.63;3.40;;;12.10;99.90;;;;;;5010395;28;20841;-78
2023/04/11 09:18:42;;;;;;;7.27;3.37;;;12.10;99.90;;;;;;4992159;28;20505;-77
2023/04/11 09:21:10;;;;;;;3.30;2.40;;;12.20;99.90;;;;;;5010205;28;20488;-78
2023/04/11 09:23:36;;;;;;;5.17;3.07;;;12.20;99.90;;;;;;5008690;28;20795;-78
2023/04/11 09:26:05;;;;;;;6.57;2.70;;;12.10;99.90;;;;;;5010347;28;20516;-77
2023/04/11 09:28:41;;;;;;;4.93;2.97;;;12.10;99.90;;;;;;4992440;28;20430;-77
2023/04/11 09:31:08;;;;;;;9.03;2.33;;;12.20;99.90;;;;;;5025042;28;20449;-77
2023/04/11 09:33:33;;;;;;;7.23;2.30;;;12.30;99.90;;;;;;4992659;28;20450;-78
2023/04/11 09:36:01;;;;;;;4.10;2.13;;;12.30;99.90;;;;;;5010181;28;20461;-78
2023/04/11 09:38:34;;;;;;;3.53;1.80;;;12.40;99.90;;;;;;5008857;28;20521;-77
2023/04/11 09:41:01;;;;;;;8.00;2.27;;;12.40;99.20;;;;;;5008588;28;20493;-77
2023/04/11 09:43:47;;;;;;;3.73;1.63;;;12.50;99.30;;;;;;5009722;28;20418;-77
2023/04/11 09:46:17;;;;;;;7.00;2.20;;;12.60;98.70;;;;;;5010354;28;21002;-77
2023/04/11 09:48:43;;;;;;;3.87;2.10;;;12.60;98.70;;;;;;5009786;28;20417;-77
2023/04/11 09:51:09;;;;;;;8.77;2.73;;;12.50;99.10;;;;;;5012969;28;20445;-76
2023/04/11 09:53:36;;;;;;;5.77;2.83;;;12.40;98.40;;;;;;5013654;28;20885;-77
2023/04/11 09:56:02;;;;;;;4.50;2.03;;;12.40;98.80;;;;;;5013800;28;20468;-77
2023/04/11 09:58:33;;;;;;;4.80;2.20;;;12.40;99.70;;;;;;4992339;28;20936;-77
2023/04/11 10:01:00;;;;;;;4.97;2.00;;;12.60;99.90;;;;;;4992646;28;20439;-77
2023/04/11 10:03:26;;;;;;;4.53;1.77;;;12.70;99.10;;;;;;4993106;28;20904;-77
2023/04/11 10:05:53;;;;;;;6.80;2.27;;;12.80;99.10;;;;;;4993665;28;21089;-78
2023/04/11 10:08:31;;;;;;;7.00;2.37;;;12.90;99.40;;;;;;4993080;28;20418;-76
2023/04/11 10:11:06;;;;;;;3.70;2.60;;;12.90;98.30;;;;;;4993457;28;20450;-77
2023/04/11 10:13:41;;;;;;;7.43;2.50;;;13.00;98.90;;;;;;4993188;28;20438;-78
2023/04/11 10:16:15;;;;;;;3.63;2.17;;;13.20;99.60;;;;;;5008716;28;20918;-77
2023/04/11 10:18:53;;;;;;;4.63;2.30;;;13.30;98.40;;;;;;5008322;28;20443;-78
2023/04/11 10:21:35;;;;;;;6.10;2.50;;;13.50;97.20;;;;;;5008132;28;20441;-76
2023/04/11 10:24:16;;;;;;;4.63;2.00;;;13.50;95.60;;;;;;4993027;28;20450;-77
2023/04/11 10:27:02;;;;;;;5.30;3.80;;;13.60;94.70;;;;;;4993513;28;20431;-77
2023/04/11 10:29:28;;;;;;;5.40;2.43;;;13.70;94.40;;;;;;5008241;28;20722;-77
2023/04/11 10:32:20;;;;;;;3.43;2.80;;;13.80;96.00;;;;;;4993396;28;20415;-76
2023/04/11 10:34:52;;;;;;;5.30;2.37;;;14.00;96.20;;;;;;4993079;28;20827;-77
2023/04/11 10:37:29;;;;;;;5.50;2.77;;;14.10;96.40;;;;;;4992892;28;20442;-78
2023/04/11 10:40:00;;;;;;;3.93;2.40;;;14.20;95.60;;;;;;5008140;28;20473;-77
2023/04/11 10:42:43;;;;;;;5.60;2.60;;;14.30;94.70;;;;;;4993295;28;20806;-77
2023/04/11 10:45:28;;;;;;;5.40;2.27;;;14.30;92.50;;;;;;4993365;28;20415;-77
2023/04/11 10:48:09;;;;;;;5.93;2.50;;;14.30;92.80;;;;;;4992569;28;20502;-77
2023/04/11 10:50:40;;;;;;;7.20;3.27;;;14.40;92.90;;;;;;4993072;28;20435;-77
2023/04/11 10:53:09;;;;;;;6.37;2.93;;;14.40;92.60;;;;;;4991520;28;20438;-77
2023/04/11 10:55:49;;;;;;;3.53;2.30;;;14.40;92.30;;;;;;5007923;28;20463;-78
2023/04/11 10:58:20;;;;;;;7.33;3.93;;;14.30;92.20;;;;;;5010361;28;20422;-78
2023/04/11 11:00:49;;;;;;;4.73;2.80;;;14.30;91.40;;;;;;5011097;28;20965;-77
2023/04/11 11:03:18;;;;;;;4.47;3.20;;;14.30;92.70;;;;;;5022070;28;20466;-76
2023/04/11 11:05:44;;;;;;;4.97;3.43;;;14.30;92.90;;;;;;5002445;28;20474;-77
2023/04/11 11:08:10;;;;;;;3.83;3.20;;;14.50;92.80;;;;;;4998603;28;20899;-78
2023/04/11 11:10:42;;;;;;;4.63;3.23;;;14.60;93.60;;;;;;5023553;28;20445;-77
2023/04/11 11:13:08;;;;;;;7.23;3.10;;;14.70;92.60;;;;;;5010496;28;20418;-77
2023/04/11 11:15:38;;;;;;;4.57;3.10;;;14.80;92.30;;;;;;5026351;28;20510;-77
2023/04/11 11:18:08;;;;;;;4.50;3.13;;;14.70;92.40;;;;;;5010502;28;20464;-78
2023/04/11 11:20:36;;;;;;;3.50;2.60;;;14.70;92.10;;;;;;5009390;28;20434;-78
2023/04/11 11:23:04;;;;;;;3.90;2.37;;;14.60;91.40;;;;;;5011380;28;20429;-78
2023/04/11 11:25:30;;;;;;;4.03;2.63;;;14.70;90.60;;;;;;5011574;28;20440;-77
2023/04/11 11:28:02;;;;;;;5.40;2.87;;;14.70;90.30;;;;;;4993749;28;20915;-78
2023/04/11 11:30:28;;;;;;;5.50;3.57;;;14.70;88.30;;;;;;5011263;28;20206;-77
2023/04/11 11:32:55;;;;;;;4.43;3.00;;;14.80;90.60;;;;;;5011572;28;20422;-78
2023/04/11 11:35:22;;;;;;;8.17;3.47;;;14.90;90.80;;;;;;5010074;28;20207;-77
2023/04/11 11:37:52;;;;;;;5.80;2.60;;;14.90;90.50;;;;;;5011183;28;20417;-77
2023/04/11 11:40:21;;;;;;;6.23;2.70;;;14.80;85.80;;;;;;5011176;28;20456;-77
2023/04/11 11:42:50;;;;;;;7.40;3.23;;;14.80;86.40;;;;;;5010248;28;20418;-77
2023/04/11 11:45:21;;;;;;;3.33;2.60;;;14.90;89.80;;;;;;5011267;28;20418;-78
2023/04/11 11:47:49;;;;;;;3.27;2.37;;;14.80;89.70;;;;;;5010985;28;20568;-77
2023/04/11 11:50:28;;;;;;;7.53;2.87;;;14.80;89.70;;;;;;5010750;28;20560;-77
2023/04/11 11:52:55;;;;;;;6.23;2.90;;;15.00;90.60;;;;;;5026646;28;20429;-77
2023/04/11 11:55:21;;;;;;;3.60;2.80;;;15.10;90.80;;;;;;5010745;28;20462;-77
2023/04/11 11:57:49;;;;;;;5.43;3.37;;;15.10;90.80;;;;;;5009464;28;20488;-77
2023/04/11 12:00:22;;;;;;;3.90;3.00;;;15.20;88.40;;;;;;5010035;28;20891;-77
2023/04/11 12:02:51;;;;;;;4.37;3.60;;;15.20;89.60;;;;;;5010961;28;20414;-77
2023/04/11 12:05:17;;;;;;;4.53;3.33;;;15.20;90.20;;;;;;4993179;28;20426;-77
2023/04/11 12:07:42;;;;;;;3.87;2.77;;;15.30;90.60;;;;;;5010532;28;20422;-77
2023/04/11 12:10:13;;;;;;;5.90;3.40;;;15.30;91.60;;;;;;5010612;28;20442;-75
2023/04/11 12:12:47;;;;;;;10.20;3.60;;;15.30;90.30;;;;;;4992840;28;20274;-77
2023/04/11 12:15:15;;;;;;;6.70;3.30;;;15.30;90.10;;;;;;5009469;28;20464;-77
2023/04/11 12:17:41;;;;;;;5.67;3.20;;;15.30;90.40;;;;;;5010459;28;20418;-77
2023/04/11 12:20:07;;;;;;;4.30;2.70;;;15.40;90.30;;;;;;4992880;28;20470;-77
2023/04/11 12:22:34;;;;;;;3.23;2.50;;;15.40;87.90;;;;;;5010911;28;20818;-77
2023/04/11 12:25:10;;;;;;;4.53;2.67;;;15.30;87.50;;;;;;5009352;28;20434;-77
2023/04/11 12:27:37;;;;;;;4.50;2.70;;;15.20;84.30;;;;;;4992678;28;20476;-77
2023/04/11 12:30:04;;;;;;;6.40;3.03;;;15.20;85.60;;;;;;5009168;28;20434;-77
2023/04/11 12:32:32;;;;;;;6.70;3.17;;;15.00;82.40;;;;;;5010694;28;20418;-78
2023/04/11 12:35:01;;;;;;;8.27;2.40;;;14.90;83.40;;;;;;5009221;28;20880;-77
2023/04/11 12:37:26;;;;;;;5.33;2.20;;;14.80;82.10;;;;;;5009853;28;20417;-77
2023/04/11 12:39:53;;;;;;;4.37;1.77;;;14.70;80.10;;;;;;5009079;28;20512;-77
2023/04/11 12:42:18;;;;;;;5.93;2.00;;;14.60;78.70;;;;;;5009498;28;20321;-77
2023/04/11 12:44:45;;;;;;;3.10;1.80;;;14.60;82.10;;;;;;5010098;28;21105;-78